Time;durP1;ratioP1;P1;durP2;ratioP2;P2;SDS_P1;SDS_P2;PMS_P1;PMS_P2;Temp;Humidity;BMP_temperature;BMP_pressure;BME280_temperature;BME280_humidity;BME280_pressure;Samples;Min_cycle;Max_cycle;Signal;HPM_P1;HPM_P2
2023/04/26 00:04:12;;;;;;;8.20;4.10;;;;;;;5.44;64.23;99213.05;218076;1256;139679;-68
2023/04/26 00:09:19;;;;;;;9.40;5.80;;;;;;;5.36;64.24;99216.51;218973;1257;140351;-68
2023/04/26 00:14:22;;;;;;;6.70;3.70;;;;;;;5.29;64.44;99221.84;218609;1257;139891;-71
2023/04/26 00:19:28;;;;;;;13.70;4.90;;;;;;;5.21;64.82;99226.27;218369;1257;140298;-71
2023/04/26 00:24:32;;;;;;;5.80;2.90;;;;;;;5.13;65.21;99228.40;220237;1256;140490;-72
2023/04/26 00:29:34;;;;;;;5.70;3.40;;;;;;;5.08;65.30;99233.14;218102;1256;139633;-69
2023/04/26 00:34:37;;;;;;;6.00;3.50;;;;;;;5.02;65.35;99235.77;220583;1255;140046;-73
2023/04/26 00:39:40;;;;;;;10.20;3.40;;;;;;;4.95;65.34;99238.68;218873;1256;140468;-71
2023/04/26 00:44:44;;;;;;;11.90;4.50;;;;;;;4.89;65.75;99236.00;220423;1256;140596;-68
2023/04/26 00:49:47;;;;;;;7.40;4.40;;;;;;;4.82;65.62;99237.02;218687;1256;139888;-72
2023/04/26 00:54:55;;;;;;;10.00;5.10;;;;;;;4.75;66.17;99240.73;218018;1257;140460;-75
2023/04/26 00:59:58;;;;;;;9.80;3.90;;;;;;;4.68;66.07;99236.92;218705;1257;140720;-75
2023/04/26 01:05:01;;;;;;;10.00;4.80;;;;;;;4.62;66.31;99243.88;219332;1256;141011;-77
2023/04/26 01:10:05;;;;;;;4.70;3.80;;;;;;;4.54;66.46;99242.52;218025;1257;139695;-72
2023/04/26 01:15:09;;;;;;;4.60;3.50;;;;;;;4.45;66.86;99237.89;218493;1256;139811;-70
2023/04/26 01:20:13;;;;;;;11.00;4.20;;;;;;;4.36;66.93;99232.71;217964;1257;139912;-69
2023/04/26 01:25:16;;;;;;;9.10;5.20;;;;;;;4.27;67.10;99236.36;218676;1256;915505;-70
2023/04/26 01:30:18;;;;;;;10.60;5.40;;;;;;;4.20;67.36;99240.64;218798;1257;139731;-71
2023/04/26 01:35:21;;;;;;;9.90;4.00;;;;;;;4.17;67.58;99251.55;217666;1257;139892;-68
2023/04/26 01:40:23;;;;;;;5.60;3.70;;;;;;;4.12;67.88;99247.75;218121;1259;139725;-72
2023/04/26 01:45:26;;;;;;;21.30;4.70;;;;;;;4.06;67.96;99250.46;217730;1257;140167;-83
2023/04/26 01:50:28;;;;;;;5.00;4.50;;;;;;;4.00;68.22;99250.39;218681;1257;139575;-79
2023/04/26 01:55:33;;;;;;;11.50;4.00;;;;;;;3.90;68.44;99257.50;218106;1257;139722;-69
2023/04/26 02:00:36;;;;;;;18.80;6.40;;;;;;;3.83;68.45;99260.02;218385;1256;140868;-67
2023/04/26 02:05:41;;;;;;;7.50;3.80;;;;;;;3.71;68.59;99269.85;218515;1259;139794;-68
2023/04/26 02:10:44;;;;;;;10.70;4.70;;;;;;;3.58;68.78;99266.41;219117;1257;140232;-70
2023/04/26 02:15:50;;;;;;;9.40;4.80;;;;;;;3.52;68.78;99266.27;218315;1257;140490;-69
2023/04/26 02:20:54;;;;;;;5.90;4.20;;;;;;;3.46;69.21;99267.30;218939;1257;139558;-70
2023/04/26 02:25:56;;;;;;;11.70;4.20;;;;;;;3.37;69.20;99268.48;219352;1257;140003;-70
2023/04/26 02:31:01;;;;;;;7.90;4.70;;;;;;;3.27;69.05;99268.58;220044;1257;140057;-68
2023/04/26 02:36:05;;;;;;;8.80;4.30;;;;;;;3.20;69.67;99266.33;219003;1257;142119;-68
2023/04/26 02:41:07;;;;;;;9.30;6.60;;;;;;;3.19;69.93;99261.45;218722;1260;139791;-69
2023/04/26 02:46:09;;;;;;;12.10;4.80;;;;;;;3.17;69.71;99260.77;218664;1257;139631;-68
2023/04/26 02:51:13;;;;;;;7.60;4.00;;;;;;;3.13;70.19;99264.23;218365;1257;139965;-68
2023/04/26 02:56:18;;;;;;;8.30;3.60;;;;;;;3.07;70.28;99260.45;218175;1260;140582;-68
2023/04/26 03:01:22;;;;;;;8.90;4.40;;;;;;;3.00;70.25;99259.22;218391;1257;139567;-68
2023/04/26 03:06:24;;;;;;;10.20;5.40;;;;;;;2.95;70.68;99262.52;219113;1256;141431;-67
2023/04/26 03:11:27;;;;;;;13.50;4.50;;;;;;;2.90;70.58;99266.05;218461;1256;139671;-68
2023/04/26 03:16:30;;;;;;;7.70;3.80;;;;;;;2.85;70.99;99272.23;218460;1256;139765;-68
2023/04/26 03:21:33;;;;;;;8.10;4.70;;;;;;;2.80;70.95;99274.11;217713;1257;139539;-68
2023/04/26 03:26:37;;;;;;;11.20;5.70;;;;;;;2.76;71.42;99283.13;217774;1257;139547;-68
2023/04/26 03:31:40;;;;;;;13.30;4.40;;;;;;;2.75;71.73;99286.98;217759;1255;139981;-67
2023/04/26 03:36:43;;;;;;;7.00;3.80;;;;;;;2.71;71.76;99287.45;218475;1257;140587;-69
2023/04/26 03:41:46;;;;;;;8.70;5.00;;;;;;;2.68;71.92;99290.59;217938;1257;139939;-68
2023/04/26 03:46:49;;;;;;;9.00;4.80;;;;;;;2.67;72.10;99296.17;218720;1257;140083;-68
2023/04/26 03:51:51;;;;;;;9.30;5.30;;;;;;;2.85;72.32;99297.91;218751;1255;140802;-67
2023/04/26 03:56:53;;;;;;;7.10;5.20;;;;;;;3.34;71.93;99303.16;217808;1257;139510;-68
2023/04/26 04:01:56;;;;;;;7.70;4.80;;;;;;;4.15;71.32;99306.48;218475;1256;139730;-69
2023/04/26 04:06:59;;;;;;;8.30;5.20;;;;;;;5.06;70.37;99307.94;218548;1257;139660;-68
2023/04/26 04:12:02;;;;;;;9.10;4.90;;;;;;;5.09;70.09;99314.38;219163;1257;139571;-67
2023/04/26 04:17:07;;;;;;;7.10;4.10;;;;;;;4.97;69.73;99315.15;220148;1257;139892;-70
2023/04/26 04:22:10;;;;;;;9.60;5.10;;;;;;;4.85;69.54;99320.27;220559;1257;140728;-69
2023/04/26 04:27:13;;;;;;;5.90;3.70;;;;;;;4.79;69.57;99317.33;218358;1257;139601;-69
2023/04/26 04:32:24;;;;;;;11.80;5.10;;;;;;;4.77;69.68;99328.10;220490;1257;140154;-69
2023/04/26 04:37:27;;;;;;;6.70;3.70;;;;;;;4.83;69.68;99326.70;219206;1259;141887;-68
2023/04/26 04:42:31;;;;;;;8.80;5.00;;;;;;;4.94;69.85;99326.21;218549;1257;141606;-68
2023/04/26 04:47:36;;;;;;;8.90;5.20;;;;;;;5.04;69.63;99330.54;218488;1257;139618;-68
2023/04/26 04:52:41;;;;;;;4.40;3.20;;;;;;;5.10;69.61;99332.02;219704;1256;150604;-70
2023/04/26 04:57:45;;;;;;;13.30;4.10;;;;;;;5.12;69.52;99338.48;218669;1257;139775;-68
2023/04/26 05:02:47;;;;;;;15.70;4.50;;;;;;;5.22;69.75;99345.78;218860;1257;139565;-67
2023/04/26 05:07:50;;;;;;;4.20;3.00;;;;;;;5.30;69.42;99346.32;218154;1260;139687;-67
2023/04/26 05:12:53;;;;;;;6.50;3.30;;;;;;;5.41;69.44;99346.94;217756;1257;139600;-67
2023/04/26 05:17:58;;;;;;;11.10;2.70;;;;;;;5.52;69.25;99351.38;218199;1257;162374;-68
2023/04/26 05:23:01;;;;;;;3.50;2.30;;;;;;;5.58;69.19;99348.17;217564;1257;139545;-68
2023/04/26 05:28:04;;;;;;;4.50;2.40;;;;;;;5.82;68.78;99352.20;218867;1256;139960;-68
2023/04/26 05:33:06;;;;;;;4.20;2.50;;;;;;;6.88;67.90;99353.93;217583;1257;139685;-68
2023/04/26 05:38:09;;;;;;;6.40;4.20;;;;;;;7.65;66.98;99349.00;218402;1256;139911;-68
2023/04/26 05:43:13;;;;;;;8.30;2.50;;;;;;;7.63;66.10;99365.52;218216;1260;141811;-68
2023/04/26 05:48:16;;;;;;;5.60;2.90;;;;;;;7.79;65.49;99365.30;217746;1259;140106;-70
2023/04/26 05:53:19;;;;;;;4.30;1.90;;;;;;;8.02;65.13;99368.53;218749;1256;139687;-70
2023/04/26 05:58:22;;;;;;;5.10;1.70;;;;;;;7.93;64.90;99363.48;218200;1257;140200;-69
2023/04/26 06:03:26;;;;;;;5.00;1.60;;;;;;;8.03;64.22;99363.77;217808;1257;139656;-67
2023/04/26 06:08:29;;;;;;;5.30;2.30;;;;;;;7.96;63.94;99370.46;219470;1260;140433;-67
2023/04/26 06:13:32;;;;;;;3.30;2.10;;;;;;;7.73;64.01;99372.52;219070;1260;141768;-68
2023/04/26 06:18:36;;;;;;;3.60;1.80;;;;;;;7.68;63.98;99382.91;220440;1256;139504;-69
2023/04/26 06:23:40;;;;;;;5.80;1.40;;;;;;;7.67;63.82;99383.27;219777;1259;141568;-68
2023/04/26 06:28:43;;;;;;;5.90;2.00;;;;;;;7.71;63.80;99391.82;219435;1257;140306;-68
2023/04/26 06:33:46;;;;;;;6.40;1.40;;;;;;;7.89;64.07;99389.42;219767;1257;140058;-68
2023/04/26 06:38:49;;;;;;;2.70;1.50;;;;;;;8.26;63.45;99390.08;217707;1260;141181;-68
2023/04/26 06:43:53;;;;;;;8.00;1.70;;;;;;;8.75;62.62;99388.66;218376;1257;141155;-68
2023/04/26 06:48:57;;;;;;;3.20;1.50;;;;;;;9.45;62.16;99383.75;218096;1259;139095;-68
2023/04/26 06:54:01;;;;;;;3.10;1.40;;;;;;;10.52;61.22;99377.69;219055;1257;139969;-68
2023/04/26 06:59:05;;;;;;;3.60;1.10;;;;;;;12.05;59.82;99380.29;218423;1257;140054;-68
2023/04/26 07:04:11;;;;;;;4.00;1.90;;;;;;;13.31;58.13;99375.63;217881;1260;140458;-69
2023/04/26 07:09:14;;;;;;;7.90;2.00;;;;;;;14.48;56.38;99377.84;217737;1260;139992;-68
2023/04/26 07:14:18;;;;;;;5.80;2.00;;;;;;;15.01;55.36;99374.55;217913;1257;139598;-68
2023/04/26 07:19:22;;;;;;;3.50;1.60;;;;;;;15.11;53.85;99383.61;217534;1257;138967;-68
2023/04/26 07:24:25;;;;;;;3.70;1.80;;;;;;;14.96;52.42;99396.27;218432;1257;139677;-69
2023/04/26 07:29:30;;;;;;;3.60;1.30;;;;;;;14.78;51.56;99391.57;218015;1257;139271;-68
2023/04/26 07:34:33;;;;;;;10.60;2.00;;;;;;;14.55;51.31;99399.91;218006;1256;140279;-69
2023/04/26 07:39:36;;;;;;;2.40;1.40;;;;;;;14.53;50.73;99401.46;218270;1257;139769;-69
2023/04/26 07:44:40;;;;;;;2.70;1.30;;;;;;;14.24;50.03;99407.27;217806;1259;139421;-69
2023/04/26 07:49:44;;;;;;;2.50;1.00;;;;;;;13.68;49.74;99409.55;217936;1259;139621;-68
2023/04/26 07:54:50;;;;;;;5.10;2.00;;;;;;;13.70;50.10;99415.29;218314;1260;139203;-69
2023/04/26 07:59:55;;;;;;;2.00;1.50;;;;;;;13.63;49.57;99415.14;218724;1258;140245;-68
2023/04/26 08:04:59;;;;;;;7.10;1.60;;;;;;;13.21;49.14;99418.90;218656;1260;139491;-68
2023/04/26 08:10:04;;;;;;;6.50;1.70;;;;;;;13.44;49.35;99420.69;218310;1260;139273;-70
2023/04/26 08:15:07;;;;;;;3.30;1.30;;;;;;;13.45;49.02;99427.55;220437;1257;163559;-70
2023/04/26 08:20:10;;;;;;;4.80;1.70;;;;;;;13.63;48.50;99426.77;220491;1257;139589;-70
2023/04/26 08:25:15;;;;;;;4.00;1.60;;;;;;;13.88;47.96;99420.80;219506;1257;140267;-69
2023/04/26 08:30:20;;;;;;;10.70;2.00;;;;;;;13.88;47.80;99431.52;218228;1260;139618;-70
2023/04/26 08:35:24;;;;;;;3.90;1.30;;;;;;;14.05;47.36;99443.79;217655;1260;141198;-69
2023/04/26 08:40:30;;;;;;;5.60;1.80;;;;;;;14.23;46.85;99443.78;219581;1260;140384;-69
2023/04/26 08:45:36;;;;;;;4.60;0.80;;;;;;;14.05;45.83;99440.30;217862;1260;139103;-69
2023/04/26 08:50:46;;;;;;;3.40;1.30;;;;;;;13.44;45.13;99443.39;219277;1257;139271;-70
2023/04/26 08:55:49;;;;;;;1.70;1.40;;;;;;;12.73;45.15;99453.39;217467;1260;140266;-70
2023/04/26 09:00:53;;;;;;;2.50;1.00;;;;;;;12.34;46.09;99453.86;217677;1257;139989;-71
2023/04/26 09:05:57;;;;;;;5.20;1.20;;;;;;;12.05;46.44;99457.95;217731;1257;140156;-70
2023/04/26 09:11:02;;;;;;;2.40;1.40;;;;;;;11.74;45.93;99461.73;217667;1260;141085;-69
2023/04/26 09:16:06;;;;;;;2.90;1.40;;;;;;;11.51;46.17;99464.97;218639;1258;140015;-70
2023/04/26 09:21:09;;;;;;;3.10;1.40;;;;;;;11.53;46.78;99463.77;217750;1257;139543;-69
2023/04/26 09:26:16;;;;;;;3.50;1.50;;;;;;;11.53;46.88;99468.36;218088;1261;138993;-69
2023/04/26 09:31:40;;;;;;;2.20;1.50;;;;;;;11.53;46.91;99473.48;218033;1260;139600;-69
2023/04/26 09:36:57;;;;;;;6.00;1.50;;;;;;;11.28;46.57;99476.55;217949;1261;140972;-68
2023/04/26 09:42:06;;;;;;;3.20;1.40;;;;;;;11.42;46.87;99480.64;217592;1257;141142;-68
2023/04/26 09:47:11;;;;;;;6.70;1.40;;;;;;;12.07;47.13;99474.75;218318;1260;138843;-69
2023/04/26 09:52:19;;;;;;;2.60;1.30;;;;;;;11.98;45.81;99477.86;218832;1257;140064;-70
2023/04/26 09:57:22;;;;;;;3.80;1.90;;;;;;;12.03;46.08;99474.70;218376;1260;140207;-70
2023/04/26 10:02:27;;;;;;;4.10;2.10;;;;;;;12.03;45.86;99481.64;218315;1258;140238;-71
2023/04/26 10:07:30;;;;;;;3.80;1.80;;;;;;;12.45;45.83;99464.48;217999;1257;139352;-70
2023/04/26 10:12:33;;;;;;;1.30;1.00;;;;;;;12.63;45.78;99460.74;218405;1257;139706;-71
2023/04/26 10:17:39;;;;;;;3.40;1.70;;;;;;;12.30;44.62;99474.77;219366;1257;139755;-73
2023/04/26 10:22:50;;;;;;;2.50;1.50;;;;;;;11.69;44.07;99482.94;220519;1257;139482;-71
2023/04/26 10:27:54;;;;;;;4.20;1.70;;;;;;;11.18;44.43;99482.92;220469;1255;139463;-70
2023/04/26 10:32:57;;;;;;;1.20;1.20;;;;;;;11.25;44.91;99475.77;219724;1257;140859;-70
2023/04/26 10:38:00;;;;;;;7.20;2.00;;;;;;;11.50;44.77;99481.98;217852;1257;139225;-70
2023/04/26 10:43:13;;;;;;;4.10;2.00;;;;;;;11.94;44.56;99484.79;218854;1256;139544;-70
2023/04/26 10:48:27;;;;;;;1.40;1.30;;;;;;;11.94;44.06;99484.69;217694;1257;139293;-70
2023/04/26 10:53:45;;;;;;;2.50;1.30;;;;;;;11.58;44.25;99491.80;218355;1257;140123;-70
2023/04/26 10:58:48;;;;;;;3.90;2.30;;;;;;;11.28;44.00;99492.73;217708;1257;139673;-72
2023/04/26 11:03:57;;;;;;;3.40;1.30;;;;;;;11.21;44.45;99492.63;217622;1257;140317;-69
2023/04/26 11:09:02;;;;;;;4.00;2.10;;;;;;;11.66;45.15;99487.96;218338;1257;140817;-70
2023/04/26 11:14:06;;;;;;;9.50;2.60;;;;;;;11.67;44.97;99499.10;217845;1257;140539;-70
2023/04/26 11:19:09;;;;;;;1.50;1.10;;;;;;;11.41;44.31;99502.56;217857;1260;139059;-69
2023/04/26 11:24:16;;;;;;;3.80;1.60;;;;;;;10.98;44.43;99512.05;217949;1258;140444;-70
2023/04/26 11:29:20;;;;;;;;;;;;;;;10.76;45.01;99516.67;217810;1260;140818;-70
2023/04/26 11:34:38;;;;;;;1.40;1.30;;;;;;;10.93;45.10;99519.73;218515;1260;125900;-70
2023/04/26 11:39:44;;;;;;;1.00;1.00;;;;;;;11.14;45.05;99518.39;217793;1257;140785;-69
2023/04/26 11:45:05;;;;;;;1.40;1.30;;;;;;;11.39;45.19;99517.33;218215;1256;140439;-69
2023/04/26 11:50:10;;;;;;;6.50;1.70;;;;;;;11.34;44.61;99519.02;218811;1257;140628;-69
2023/04/26 11:55:14;;;;;;;10.80;2.90;;;;;;;11.07;44.50;99521.48;218497;1257;139250;-69
2023/04/26 12:00:18;;;;;;;11.00;1.60;;;;;;;10.81;44.60;99524.11;217964;1257;140198;-70
2023/04/26 12:05:31;;;;;;;2.20;1.30;;;;;;;10.72;44.51;99527.56;218992;1256;139614;-70
2023/04/26 12:10:35;;;;;;;1.90;0.90;;;;;;;10.91;44.94;99519.22;218469;1259;139335;-70
2023/04/26 12:15:38;;;;;;;3.10;1.90;;;;;;;10.91;44.62;99526.10;219976;1256;139919;-71
2023/04/26 12:20:42;;;;;;;1.60;1.20;;;;;;;10.79;44.41;99534.52;219993;1256;141468;-72
2023/04/26 12:25:53;;;;;;;3.10;1.50;;;;;;;10.78;44.41;99531.15;218600;1256;139386;-70
2023/04/26 12:30:59;;;;;;;7.00;1.40;;;;;;;10.83;44.36;99531.49;219460;1256;140307;-71
2023/04/26 12:36:11;;;;;;;3.70;1.10;;;;;;;11.02;44.07;99530.59;217913;1256;139185;-70
2023/04/26 12:41:15;;;;;;;3.10;1.20;;;;;;;11.29;43.61;99530.73;218774;1257;141056;-68
2023/04/26 12:46:20;;;;;;;1.40;1.20;;;;;;;11.00;43.47;99530.39;218288;1256;139273;-70
2023/04/26 12:51:23;;;;;;;0.90;0.90;;;;;;;10.74;43.67;99537.38;218159;1256;140212;-70
2023/04/26 12:56:28;;;;;;;4.80;1.10;;;;;;;10.44;43.89;99539.98;218154;1256;140294;-72
2023/04/26 13:01:30;;;;;;;3.20;1.40;;;;;;;10.32;44.17;99545.23;217969;1257;139364;-69
2023/04/26 13:06:34;;;;;;;3.90;1.40;;;;;;;10.76;44.37;99539.43;218252;1260;140701;-71
2023/04/26 13:11:38;;;;;;;5.40;1.40;;;;;;;10.80;43.69;99545.10;218008;1257;141446;-70
2023/04/26 13:16:42;;;;;;;2.50;1.40;;;;;;;10.55;43.82;99542.64;217839;1257;140120;-72
2023/04/26 13:21:47;;;;;;;5.40;1.20;;;;;;;10.54;44.08;99546.28;218292;1256;139402;-71
2023/04/26 13:26:51;;;;;;;4.00;1.30;;;;;;;10.41;43.46;99548.98;217611;1256;1321687;-72
2023/04/26 13:31:55;;;;;;;1.60;1.00;;;;;;;10.18;43.91;99559.19;218036;1257;139919;-71
2023/04/26 13:36:59;;;;;;;8.00;2.70;;;;;;;10.03;44.41;99567.19;218111;1257;139408;-71
2023/04/26 13:42:04;;;;;;;1.20;1.10;;;;;;;9.92;44.94;99568.47;218406;1260;139185;-69
2023/04/26 13:47:07;;;;;;;2.00;1.40;;;;;;;9.95;45.43;99574.48;217746;1257;140273;-71
2023/04/26 13:52:11;;;;;;;4.00;1.40;;;;;;;9.96;45.52;99576.45;219590;1256;140248;-73
2023/04/26 13:57:13;;;;;;;2.40;1.20;;;;;;;9.99;45.44;99575.83;219451;1256;139266;-73
2023/04/26 14:02:16;;;;;;;2.90;2.00;;;;;;;10.32;45.73;99573.85;219416;1256;138957;-71
2023/04/26 14:07:20;;;;;;;5.50;1.40;;;;;;;10.58;45.44;99568.54;217620;1257;247570;-70
2023/04/26 14:12:23;;;;;;;2.80;1.30;;;;;;;10.49;45.10;99575.57;220391;1256;140858;-73
2023/04/26 14:17:27;;;;;;;10.50;2.60;;;;;;;10.36;44.86;99579.96;220535;1256;139557;-76
2023/04/26 14:22:30;;;;;;;5.50;2.40;;;;;;;10.21;44.81;99588.60;219191;1257;141447;-72
2023/04/26 14:27:34;;;;;;;1.10;0.90;;;;;;;10.03;44.90;99596.80;219250;1256;139892;-71
2023/04/26 14:32:37;;;;;;;2.80;1.30;;;;;;;9.86;45.06;99605.04;218429;1256;140151;-71
2023/04/26 14:37:42;;;;;;;3.00;1.60;;;;;;;9.70;45.70;99610.71;218266;1256;138580;-68
2023/04/26 14:42:50;;;;;;;2.60;1.70;;;;;;;9.60;46.04;99612.23;219100;1256;139152;-73
2023/04/26 14:47:54;;;;;;;3.60;2.30;;;;;;;9.52;46.16;99611.40;219120;1257;140141;-72
2023/04/26 14:52:57;;;;;;;7.80;1.60;;;;;;;9.72;46.56;99613.85;217675;1257;139604;-74
2023/04/26 14:58:00;;;;;;;2.10;1.30;;;;;;;10.10;46.40;99611.69;218314;1257;139810;-76
2023/04/26 15:03:03;;;;;;;2.00;1.40;;;;;;;10.22;45.92;99614.30;218024;1256;139322;-71
2023/04/26 15:08:07;;;;;;;3.30;1.20;;;;;;;10.23;45.74;99612.89;217634;1257;140743;-73
2023/04/26 15:13:09;;;;;;;1.90;1.60;;;;;;;10.16;45.41;99621.55;217952;1257;139163;-73
2023/04/26 15:18:11;;;;;;;3.80;1.90;;;;;;;10.07;45.47;99621.16;217616;1257;139046;-73
2023/04/26 15:23:13;;;;;;;3.80;2.80;;;;;;;10.01;45.71;99628.77;217969;1256;139823;-74
2023/04/26 15:28:18;;;;;;;4.00;1.60;;;;;;;9.93;45.84;99628.47;217736;1257;139585;-74
2023/04/26 15:33:22;;;;;;;5.40;2.60;;;;;;;9.89;46.11;99626.94;218937;1257;141527;-69
2023/04/26 15:38:26;;;;;;;2.60;1.00;;;;;;;9.96;46.22;99631.41;217983;1257;138948;-72
2023/04/26 15:43:30;;;;;;;4.10;1.60;;;;;;;9.82;45.96;99630.41;218921;1256;139803;-78
2023/04/26 15:48:35;;;;;;;7.00;1.90;;;;;;;9.62;45.95;99631.38;218468;1256;140614;-74
2023/04/26 15:53:42;;;;;;;1.60;1.50;;;;;;;9.48;45.68;99630.91;218678;1256;139410;-72
2023/04/26 15:58:47;;;;;;;3.80;1.80;;;;;;;9.43;45.57;99637.03;219051;1256;139138;-70
2023/04/26 16:03:51;;;;;;;3.80;1.40;;;;;;;9.44;45.79;99640.29;217634;1259;140375;-71
2023/04/26 16:09:00;;;;;;;3.30;1.80;;;;;;;9.45;46.03;99640.31;218988;1257;139986;-72
2023/04/26 16:14:26;;;;;;;2.70;1.80;;;;;;;9.40;46.15;99643.30;220395;1256;233794;-69
2023/04/26 16:19:44;;;;;;;7.00;1.60;;;;;;;9.32;46.09;99641.16;217643;1257;139744;-69
2023/04/26 16:24:59;;;;;;;2.90;2.40;;;;;;;9.31;46.40;99642.04;220335;1256;140327;-72
2023/04/26 16:30:02;;;;;;;3.20;1.60;;;;;;;9.38;46.44;99645.04;219222;1256;139065;-77
2023/04/26 16:35:08;;;;;;;5.90;2.80;;;;;;;9.41;46.22;99646.77;219727;1257;140426;-81
2023/04/26 16:40:13;;;;;;;1.90;1.70;;;;;;;9.35;46.18;99652.09;217813;1256;138845;-74
2023/04/26 16:45:26;;;;;;;1.70;1.70;;;;;;;9.20;46.09;99657.64;217865;1256;138762;-79
2023/04/26 16:50:30;;;;;;;5.20;1.90;;;;;;;9.04;46.07;99659.30;218753;1256;140119;-76
2023/04/26 16:55:34;;;;;;;10.20;3.80;;;;;;;8.92;46.47;99659.75;217659;1257;139736;-75
2023/04/26 17:00:37;;;;;;;3.40;2.20;;;;;;;8.85;46.64;99665.21;218433;1256;139154;-73
2023/04/26 17:05:48;;;;;;;4.40;2.20;;;;;;;8.84;46.77;99667.95;218401;1257;139171;-73
2023/04/26 17:10:53;;;;;;;4.00;2.50;;;;;;;8.77;47.07;99670.52;217413;1259;139811;-72
2023/04/26 17:15:58;;;;;;;2.80;2.60;;;;;;;8.67;47.02;99677.27;217948;1257;138737;-71
2023/04/26 17:21:07;;;;;;;6.30;2.40;;;;;;;8.48;47.13;99686.13;217550;1257;152972;-71
2023/04/26 17:26:09;;;;;;;6.30;1.90;;;;;;;8.34;47.55;99689.03;217846;1259;138825;-71
2023/04/26 17:31:13;;;;;;;25.00;3.40;;;;;;;8.20;47.69;99691.06;218133;1256;138840;-71
2023/04/26 17:36:16;;;;;;;2.40;2.00;;;;;;;8.07;47.92;99691.84;218210;1256;139457;-70
2023/04/26 17:41:21;;;;;;;3.80;2.10;;;;;;;7.94;48.33;99696.21;217941;1257;139580;-71
2023/04/26 17:46:23;;;;;;;2.50;2.30;;;;;;;7.80;48.08;99698.83;218319;1256;138986;-69
2023/04/26 17:51:26;;;;;;;4.70;2.20;;;;;;;7.70;49.14;99708.20;218292;1256;138768;-70
2023/04/26 17:56:29;;;;;;;2.00;1.60;;;;;;;7.58;49.76;99711.55;218871;1256;139445;-71
2023/04/26 18:01:32;;;;;;;4.90;2.30;;;;;;;7.47;50.33;99713.81;219080;1256;139876;-70
2023/04/26 18:06:36;;;;;;;4.00;2.50;;;;;;;7.37;51.07;99715.72;218647;1256;139610;-72
2023/04/26 18:11:39;;;;;;;2.80;2.50;;;;;;;7.32;51.86;99722.29;220382;1256;139917;-73
2023/04/26 18:16:42;;;;;;;4.90;2.30;;;;;;;7.26;52.66;99726.54;220446;1256;160438;-75
2023/04/26 18:21:49;;;;;;;6.80;3.00;;;;;;;7.20;52.51;99728.11;218672;1256;138746;-78
2023/04/26 18:26:53;;;;;;;5.10;2.40;;;;;;;7.19;52.13;99735.98;219771;1256;140059;-71
2023/04/26 18:31:56;;;;;;;6.10;2.60;;;;;;;7.19;52.51;99744.48;219812;1255;141052;-74
2023/04/26 18:37:00;;;;;;;3.30;2.90;;;;;;;7.13;52.82;99748.33;217839;1257;138792;-70
2023/04/26 18:42:04;;;;;;;6.00;2.80;;;;;;;7.00;52.61;99752.64;219898;1256;139176;-69
2023/04/26 18:47:08;;;;;;;5.90;3.60;;;;;;;6.85;52.86;99757.63;219440;1257;138570;-68
2023/04/26 18:52:13;;;;;;;8.10;3.50;;;;;;;6.68;53.92;99758.67;217850;1257;139527;-74
2023/04/26 18:57:21;;;;;;;5.70;5.20;;;;;;;6.48;54.12;99761.29;217764;1256;138750;-69
2023/04/26 19:02:25;;;;;;;13.40;3.60;;;;;;;6.27;54.96;99763.74;218252;1257;139968;-69
2023/04/26 19:07:28;;;;;;;5.20;2.90;;;;;;;6.08;55.83;99768.93;218266;1257;142472;-69
2023/04/26 19:12:31;;;;;;;6.10;2.90;;;;;;;5.93;56.31;99771.90;218306;1256;138939;-69
2023/04/26 19:17:35;;;;;;;4.50;2.50;;;;;;;5.71;57.46;99770.70;217751;1257;139058;-69
2023/04/26 19:22:46;;;;;;;5.70;3.50;;;;;;;5.54;57.98;99773.80;218251;1257;140159;-68
2023/04/26 19:27:51;;;;;;;3.50;2.70;;;;;;;5.39;58.48;99776.90;217937;1257;139482;-67
2023/04/26 19:32:57;;;;;;;7.10;4.40;;;;;;;5.24;58.78;99781.29;217921;1257;139184;-68
2023/04/26 19:38:00;;;;;;;5.70;2.70;;;;;;;5.05;58.96;99786.19;218486;1257;138806;-68
2023/04/26 19:43:05;;;;;;;4.70;2.50;;;;;;;4.84;59.52;99787.68;217776;1257;139328;-68
2023/04/26 19:48:09;;;;;;;4.40;3.00;;;;;;;4.65;59.76;99786.24;219598;1256;139679;-69
2023/04/26 19:53:15;;;;;;;6.90;2.30;;;;;;;4.53;59.99;99794.39;218307;1256;139377;-67
2023/04/26 19:58:18;;;;;;;5.70;3.00;;;;;;;4.44;60.66;99795.14;218103;1257;139366;-68
2023/04/26 20:03:21;;;;;;;6.10;3.20;;;;;;;4.35;60.72;99795.73;219112;1257;139623;-68
2023/04/26 20:08:24;;;;;;;4.90;2.90;;;;;;;4.22;61.16;99799.07;218608;1257;139923;-75
2023/04/26 20:13:28;;;;;;;3.20;2.30;;;;;;;4.11;61.38;99797.18;220669;1256;139469;-73
2023/04/26 20:18:32;;;;;;;5.60;3.60;;;;;;;3.94;61.56;99797.41;219016;1257;138858;-77
2023/04/26 20:23:35;;;;;;;5.40;2.20;;;;;;;3.80;61.81;99798.27;218559;1257;140118;-72
2023/04/26 20:28:40;;;;;;;4.00;2.90;;;;;;;3.69;62.16;99804.13;218935;1255;138780;-73
2023/04/26 20:33:43;;;;;;;5.10;4.60;;;;;;;3.57;62.50;99807.74;218448;1257;139744;-74
2023/04/26 20:38:46;;;;;;;6.30;2.70;;;;;;;3.42;62.51;99811.91;217658;1257;139225;-74
2023/04/26 20:43:51;;;;;;;3.40;2.90;;;;;;;3.29;63.09;99813.25;219372;1256;138858;-71
2023/04/26 20:48:54;;;;;;;6.00;2.60;;;;;;;3.18;63.32;99817.45;217884;1257;138882;-69
2023/04/26 20:53:57;;;;;;;11.60;5.40;;;;;;;3.12;63.55;99822.76;218306;1257;149875;-69
2023/04/26 20:59:00;;;;;;;8.80;4.70;;;;;;;3.06;63.80;99818.20;218542;1256;139409;-69
2023/04/26 21:04:03;;;;;;;7.00;3.40;;;;;;;3.04;64.40;99820.70;218288;1257;139258;-69
2023/04/26 21:09:08;;;;;;;4.30;2.80;;;;;;;3.02;64.45;99827.64;218104;1257;139595;-69
2023/04/26 21:14:12;;;;;;;10.00;4.30;;;;;;;3.00;64.62;99829.20;217972;1255;139303;-69
2023/04/26 21:19:16;;;;;;;13.30;4.80;;;;;;;3.03;64.72;99835.59;218438;1256;140565;-68
2023/04/26 21:24:19;;;;;;;8.60;3.90;;;;;;;3.10;64.77;99841.48;217641;1259;140537;-69
2023/04/26 21:29:24;;;;;;;12.50;4.90;;;;;;;3.12;64.89;99844.55;217809;1257;140080;-70
2023/04/26 21:34:30;;;;;;;8.50;4.90;;;;;;;3.11;64.84;99842.36;218254;1257;223901;-69
2023/04/26 21:39:33;;;;;;;9.70;5.30;;;;;;;3.05;64.97;99842.88;218094;1257;139805;-69
2023/04/26 21:44:37;;;;;;;8.10;3.80;;;;;;;2.99;64.98;99852.73;218065;1256;139409;-70
2023/04/26 21:49:40;;;;;;;13.60;5.80;;;;;;;2.94;65.05;99859.98;218782;1256;139875;-69
2023/04/26 21:54:44;;;;;;;12.20;5.10;;;;;;;2.90;65.50;99865.55;220300;1257;139873;-73
2023/04/26 21:59:47;;;;;;;9.80;4.10;;;;;;;2.82;65.31;99867.95;220329;1256;142544;-73
2023/04/26 22:04:50;;;;;;;7.20;4.60;;;;;;;2.74;65.32;99875.90;218015;1256;141070;-71
2023/04/26 22:09:58;;;;;;;5.90;3.70;;;;;;;2.68;65.47;99876.07;219670;1257;139644;-71
2023/04/26 22:15:00;;;;;;;11.10;4.20;;;;;;;2.59;65.75;99880.02;219212;1257;140745;-72
2023/04/26 22:20:04;;;;;;;14.00;5.10;;;;;;;2.49;65.86;99886.23;218409;1257;139880;-71
2023/04/26 22:25:07;;;;;;;7.20;3.80;;;;;;;2.41;65.93;99888.64;218259;1256;139601;-70
2023/04/26 22:30:12;;;;;;;14.10;6.10;;;;;;;2.31;66.08;99892.70;218274;1257;140091;-67
2023/04/26 22:35:28;;;;;;;;;;;;;;;2.23;66.36;99889.83;217717;1257;139489;-72
2023/04/26 22:40:31;;;;;;;7.00;4.80;;;;;;;2.10;66.15;99890.23;218779;1257;126203;-73
2023/04/26 22:45:34;;;;;;;6.30;4.50;;;;;;;2.00;66.39;99892.90;217764;1257;139559;-71
2023/04/26 22:50:38;;;;;;;9.70;5.60;;;;;;;1.96;67.05;99899.25;217884;1260;140986;-71
2023/04/26 22:55:42;;;;;;;16.60;5.60;;;;;;;1.89;67.05;99900.02;218455;1260;141494;-72
2023/04/26 23:00:45;;;;;;;12.60;6.30;;;;;;;1.82;67.45;99904.25;218408;1259;139709;-69
2023/04/26 23:05:49;;;;;;;13.10;5.70;;;;;;;1.79;67.52;99911.04;218094;1257;141939;-70
2023/04/26 23:10:52;;;;;;;6.80;4.30;;;;;;;1.78;67.58;99913.38;217756;1256;140289;-69
2023/04/26 23:15:54;;;;;;;10.40;5.40;;;;;;;1.73;67.79;99917.83;217893;1257;139597;-73
2023/04/26 23:20:57;;;;;;;7.70;4.30;;;;;;;1.64;68.08;99919.68;218954;1257;141363;-69
2023/04/26 23:26:04;;;;;;;7.90;4.50;;;;;;;1.56;68.08;99922.84;217758;1257;140411;-70
2023/04/26 23:31:10;;;;;;;7.30;4.90;;;;;;;1.44;68.51;99921.47;217768;1259;140162;-73